Time;durP1;ratioP1;P1;durP2;ratioP2;P2;SDS_P1;SDS_P2;PMS_P1;PMS_P2;Temp;Humidity;BMP_temperature;BMP_pressure;BME280_temperature;BME280_humidity;BME280_pressure;Samples;Min_cycle;Max_cycle;Signal;HPM_P1;HPM_P2
2021/09/17 00:01:34;;;;;;;4.93;3.10;;;;;;;21.10;58.64;101705.91;5051389;28;20025;-62
2021/09/17 00:03:59;;;;;;;4.10;2.80;;;;;;;21.11;58.63;101710.22;5051214;28;20485;-63
2021/09/17 00:06:24;;;;;;;4.88;2.90;;;;;;;21.10;58.44;101709.38;5050769;28;20044;-62
2021/09/17 00:08:50;;;;;;;4.75;2.67;;;;;;;21.08;58.52;101706.03;5051213;28;20021;-63
2021/09/17 00:11:15;;;;;;;4.70;3.10;;;;;;;21.07;58.57;101700.84;5052849;28;20460;-62
2021/09/17 00:13:40;;;;;;;5.28;3.50;;;;;;;21.07;58.49;101711.44;5054689;28;20274;-63
2021/09/17 00:16:06;;;;;;;5.05;2.97;;;;;;;21.08;58.50;101707.81;5054848;28;20022;-63
2021/09/17 00:18:31;;;;;;;6.07;3.10;;;;;;;21.07;58.49;101708.81;5055348;28;20036;-63
2021/09/17 00:20:56;;;;;;;4.20;2.90;;;;;;;21.07;58.49;101701.69;5054294;28;20025;-63
2021/09/17 00:23:22;;;;;;;4.55;3.28;;;;;;;21.06;58.36;101699.16;5054646;28;20365;-62
2021/09/17 00:25:47;;;;;;;4.70;3.10;;;;;;;21.06;58.70;101704.47;5055129;28;20032;-63
2021/09/17 00:28:15;;;;;;;4.90;3.15;;;;;;;21.06;58.56;101701.81;5054296;28;20120;-62
2021/09/17 00:30:41;;;;;;;4.72;2.95;;;;;;;21.05;58.38;101702.78;5055114;28;20037;-63
2021/09/17 00:33:06;;;;;;;4.78;3.10;;;;;;;21.02;58.61;101698.56;5054536;28;20025;-63
2021/09/17 00:35:33;;;;;;;4.80;3.10;;;;;;;21.05;58.49;101702.78;5054361;28;20104;-63
2021/09/17 00:38:01;;;;;;;4.40;3.08;;;;;;;21.00;58.42;101695.22;5054725;28;20025;-63
2021/09/17 00:40:30;;;;;;;5.20;3.10;;;;;;;21.01;58.47;101689.78;5055202;28;20040;-64
2021/09/17 00:42:55;;;;;;;5.07;3.25;;;;;;;21.02;58.70;101694.09;5053772;28;20503;-63
2021/09/17 00:45:21;;;;;;;4.75;3.10;;;;;;;21.02;58.67;101688.81;5054761;28;20021;-63
2021/09/17 00:47:46;;;;;;;5.10;3.08;;;;;;;21.01;58.54;101687.13;5054079;28;20041;-63
2021/09/17 00:50:16;;;;;;;5.60;3.20;;;;;;;21.01;58.58;101680.97;5054842;28;20033;-63
2021/09/17 00:52:42;;;;;;;5.22;2.97;;;;;;;20.97;58.52;101677.72;5054705;28;20017;-63
2021/09/17 00:55:11;;;;;;;5.95;3.75;;;;;;;21.01;58.40;101683.63;5053594;28;20074;-63
2021/09/17 00:57:36;;;;;;;4.60;2.90;;;;;;;21.00;58.57;101682.78;5054510;28;20029;-63
2021/09/17 01:00:04;;;;;;;4.43;2.97;;;;;;;20.99;58.50;101682.91;5053968;28;20028;-64
2021/09/17 01:02:30;;;;;;;4.88;3.20;;;;;;;20.98;58.56;101684.72;5054011;28;20056;-63
2021/09/17 01:04:55;;;;;;;4.63;3.15;;;;;;;20.98;58.59;101692.69;5054323;28;20025;-62
2021/09/17 01:07:20;;;;;;;5.18;3.40;;;;;;;20.97;58.41;101687.50;5054339;28;20445;-63
2021/09/17 01:09:48;;;;;;;4.97;3.30;;;;;;;20.97;58.25;101687.50;5053547;28;20083;-64
2021/09/17 01:12:13;;;;;;;5.68;3.28;;;;;;;20.96;58.49;101680.50;5054154;28;20733;-62
2021/09/17 01:14:39;;;;;;;5.93;3.40;;;;;;;20.95;58.41;101687.63;5054170;28;20040;-63
2021/09/17 01:17:04;;;;;;;4.50;3.20;;;;;;;20.97;58.46;101685.69;5053354;28;20108;-63
2021/09/17 01:19:30;;;;;;;5.18;3.03;;;;;;;20.94;58.56;101674.50;5054281;28;20052;-64
2021/09/17 01:22:07;;;;;;;4.85;3.05;;;;;;;20.95;58.45;101681.47;5053214;28;20540;-63
2021/09/17 01:24:32;;;;;;;6.18;3.72;;;;;;;20.94;58.29;101679.81;5053157;28;20021;-63
2021/09/17 01:26:58;;;;;;;4.95;3.40;;;;;;;20.94;58.49;101679.81;5053913;28;20036;-63
2021/09/17 01:29:24;;;;;;;5.35;3.25;;;;;;;20.95;58.36;101676.16;5054166;28;20060;-63
2021/09/17 01:31:53;;;;;;;5.00;3.38;;;;;;;20.94;58.38;101674.50;5052664;28;20531;-62
2021/09/17 01:34:20;;;;;;;4.68;3.38;;;;;;;20.94;58.47;101674.50;5054105;28;20032;-64
2021/09/17 01:36:47;;;;;;;5.35;3.42;;;;;;;20.94;58.25;101666.56;5053852;28;20337;-63
2021/09/17 01:39:13;;;;;;;5.07;3.58;;;;;;;20.93;58.31;101670.16;5053242;28;20025;-63
2021/09/17 01:41:41;;;;;;;5.20;3.60;;;;;;;20.92;58.37;101661.38;5054093;28;20127;-63
2021/09/17 01:44:06;;;;;;;4.88;3.17;;;;;;;20.93;58.23;101670.16;5053039;28;20017;-62
2021/09/17 01:46:32;;;;;;;5.40;3.33;;;;;;;20.91;58.26;101666.78;5053669;28;20028;-63
2021/09/17 01:48:57;;;;;;;5.28;3.63;;;;;;;20.92;58.31;101660.50;5053167;28;20071;-63
2021/09/17 01:51:23;;;;;;;5.65;3.63;;;;;;;20.91;58.39;101654.38;5052774;28;20026;-63
2021/09/17 01:53:48;;;;;;;4.60;3.17;;;;;;;20.91;58.39;101656.19;5053220;28;20457;-63
2021/09/17 01:56:14;;;;;;;4.88;3.13;;;;;;;20.91;58.40;101656.19;5053444;28;20488;-63
2021/09/17 01:58:40;;;;;;;5.03;3.47;;;;;;;20.90;58.26;101642.09;5052720;28;20086;-63
2021/09/17 02:01:05;;;;;;;6.45;3.50;;;;;;;20.89;58.26;101648.38;5053600;28;20432;-62
2021/09/17 02:03:30;;;;;;;4.97;3.58;;;;;;;20.90;58.41;101638.59;5053659;28;20036;-63
2021/09/17 02:05:59;;;;;;;4.95;3.40;;;;;;;20.88;58.36;101644.03;5052639;28;20032;-64
2021/09/17 02:08:24;;;;;;;5.10;3.22;;;;;;;20.87;58.31;101639.72;5053693;28;20027;-64
2021/09/17 02:10:50;;;;;;;5.93;3.55;;;;;;;20.89;58.35;101650.19;5052975;28;20029;-63
2021/09/17 02:13:34;;;;;;;5.65;3.28;;;;;;;20.82;58.48;101632.13;5052764;28;20017;-64
2021/09/17 02:16:00;;;;;;;5.28;3.60;;;;;;;20.88;58.36;101637.91;5053405;28;20119;-63
2021/09/17 02:18:25;;;;;;;4.97;3.22;;;;;;;20.87;58.44;101636.19;5053273;28;20392;-64
2021/09/17 02:20:53;;;;;;;5.03;3.43;;;;;;;20.86;58.42;101635.38;5052150;28;20091;-62
2021/09/17 02:23:18;;;;;;;4.90;3.10;;;;;;;20.88;58.28;101635.25;5053232;28;20274;-63
2021/09/17 02:26:01;;;;;;;6.03;3.57;;;;;;;20.87;58.34;101633.56;5053406;28;20020;-62
2021/09/17 02:28:27;;;;;;;5.00;3.33;;;;;;;20.86;58.25;101630.06;5052455;28;20261;-62
2021/09/17 02:30:53;;;;;;;6.27;3.47;;;;;;;20.85;58.28;101625.72;5052361;28;20082;-62
2021/09/17 02:33:18;;;;;;;4.88;3.20;;;;;;;20.84;58.21;101622.25;5051337;28;20289;-63
2021/09/17 02:35:46;;;;;;;5.25;3.35;;;;;;;20.86;58.32;101626.59;5052535;28;20028;-63
2021/09/17 02:38:12;;;;;;;5.60;3.78;;;;;;;20.84;58.38;101624.06;5052110;28;20170;-62
2021/09/17 02:40:39;;;;;;;4.97;2.92;;;;;;;20.85;58.32;101620.44;5052067;28;20508;-62
2021/09/17 02:43:05;;;;;;;5.90;3.40;;;;;;;20.84;58.18;101618.75;5052443;28;20021;-64
2021/09/17 02:45:30;;;;;;;5.35;3.55;;;;;;;20.83;58.20;101612.59;5052244;28;20043;-64
2021/09/17 02:47:55;;;;;;;5.93;3.53;;;;;;;20.84;58.39;101622.25;5051311;28;20029;-63
2021/09/17 02:50:21;;;;;;;7.10;3.67;;;;;;;20.84;58.23;101618.75;5052399;28;20021;-63
2021/09/17 02:52:46;;;;;;;4.65;3.33;;;;;;;20.83;58.26;101617.06;5052209;28;20079;-63
2021/09/17 02:55:11;;;;;;;5.32;3.78;;;;;;;20.83;58.26;101604.66;5051358;28;20021;-63
2021/09/17 02:57:41;;;;;;;5.85;3.50;;;;;;;20.83;58.26;101612.59;5052285;28;20487;-64
2021/09/17 03:00:09;;;;;;;5.50;3.90;;;;;;;20.82;58.33;101607.44;5051935;28;20050;-63
2021/09/17 03:02:37;;;;;;;5.22;3.30;;;;;;;20.82;58.22;101610.06;5051236;28;20029;-63
2021/09/17 03:05:03;;;;;;;5.60;3.30;;;;;;;20.80;58.30;101602.25;5051781;28;20380;-63
2021/09/17 03:07:28;;;;;;;5.93;4.00;;;;;;;20.81;58.19;101598.66;5052378;28;20028;-64
2021/09/17 03:10:04;;;;;;;6.23;3.93;;;;;;;20.82;58.35;101594.19;5051054;28;20036;-62
2021/09/17 03:12:29;;;;;;;5.80;3.42;;;;;;;20.81;58.45;101595.16;5052002;28;20282;-63
2021/09/17 03:14:55;;;;;;;6.65;4.07;;;;;;;20.80;58.25;101586.34;5051576;28;20104;-62
2021/09/17 03:17:20;;;;;;;5.53;3.70;;;;;;;20.79;58.50;101587.34;5051003;28;20021;-64
2021/09/17 03:19:48;;;;;;;5.88;3.63;;;;;;;20.80;58.22;101591.66;5052065;28;20465;-63
2021/09/17 03:22:13;;;;;;;5.47;3.35;;;;;;;20.81;58.17;101587.22;5052003;28;20101;-62
2021/09/17 03:24:39;;;;;;;6.65;3.85;;;;;;;20.80;58.29;101577.59;5051224;28;20595;-62
2021/09/17 03:27:04;;;;;;;5.53;3.45;;;;;;;20.78;58.27;101575.06;5051333;28;20033;-63
2021/09/17 03:29:29;;;;;;;5.50;3.70;;;;;;;20.78;58.22;101576.88;5051287;28;20037;-62
2021/09/17 03:31:55;;;;;;;5.50;3.38;;;;;;;20.79;58.35;101575.88;5051406;28;20013;-62
2021/09/17 03:34:20;;;;;;;5.43;3.90;;;;;;;20.79;58.25;101579.41;5051711;28;20112;-64
2021/09/17 03:36:45;;;;;;;5.60;3.80;;;;;;;20.78;58.07;101580.34;5050887;28;20490;-64
2021/09/17 03:39:13;;;;;;;6.30;3.50;;;;;;;20.78;58.20;101580.34;5051644;28;20025;-63
2021/09/17 03:41:39;;;;;;;4.90;3.20;;;;;;;20.78;58.12;101575.06;5051731;28;20108;-64
2021/09/17 03:44:05;;;;;;;7.53;3.58;;;;;;;20.78;58.33;101574.22;5050532;28;20116;-63
2021/09/17 03:46:31;;;;;;;5.80;3.50;;;;;;;20.77;58.56;101577.81;5051178;28;20064;-63
2021/09/17 03:48:56;;;;;;;5.65;3.50;;;;;;;20.77;58.30;101577.81;5050930;28;20433;-62
2021/09/17 03:51:24;;;;;;;6.30;3.60;;;;;;;20.77;58.18;101568.06;5050912;28;20044;-63
2021/09/17 03:53:50;;;;;;;5.22;3.70;;;;;;;20.76;57.98;101563.75;5051362;28;20098;-63
2021/09/17 03:56:16;;;;;;;5.38;3.75;;;;;;;20.72;58.26;101557.00;5051559;28;20090;-62
2021/09/17 03:58:41;;;;;;;5.53;3.60;;;;;;;20.73;58.58;101558.69;5050527;28;20520;-63
2021/09/17 04:01:06;;;;;;;5.57;3.53;;;;;;;20.76;58.28;101565.53;5051051;28;20033;-63
2021/09/17 04:03:32;;;;;;;5.90;4.00;;;;;;;20.75;58.81;101559.41;5051252;28;20365;-62
2021/09/17 04:05:57;;;;;;;5.13;3.47;;;;;;;20.74;58.12;101556.88;5050237;28;20025;-63
2021/09/17 04:08:23;;;;;;;5.38;3.42;;;;;;;20.75;58.36;101562.06;5051358;28;20123;-63
2021/09/17 04:10:48;;;;;;;5.82;3.60;;;;;;;20.75;58.22;101561.22;5050935;28;20519;-62
2021/09/17 04:13:16;;;;;;;5.03;3.38;;;;;;;20.71;58.46;101551.84;5050685;28;20029;-63
2021/09/17 04:15:41;;;;;;;6.85;3.65;;;;;;;20.75;58.12;101555.94;5051163;28;20039;-64
2021/09/17 04:18:07;;;;;;;5.18;3.70;;;;;;;20.74;58.21;101560.38;5051112;28;20037;-63
2021/09/17 04:20:32;;;;;;;7.18;3.72;;;;;;;20.71;58.29;101554.47;5050506;28;20112;-63
2021/09/17 04:22:57;;;;;;;5.07;3.50;;;;;;;20.73;58.07;101556.06;5050854;28;20033;-63
2021/09/17 04:25:23;;;;;;;5.72;3.67;;;;;;;20.74;58.16;101559.53;5051354;28;20052;-63
2021/09/17 04:27:48;;;;;;;5.18;3.42;;;;;;;20.72;58.15;101559.66;5050032;28;20033;-63
2021/09/17 04:30:15;;;;;;;5.40;3.45;;;;;;;20.73;58.19;101558.69;5051080;28;20108;-63
2021/09/17 04:32:41;;;;;;;5.45;3.60;;;;;;;20.72;58.22;101556.19;5050709;28;20041;-63
2021/09/17 04:35:07;;;;;;;5.20;3.33;;;;;;;20.72;58.06;101551.72;5050757;28;20529;-63
2021/09/17 04:37:33;;;;;;;5.95;3.40;;;;;;;20.72;58.19;101551.72;5051220;28;20033;-62
2021/09/17 04:39:58;;;;;;;5.63;3.42;;;;;;;20.67;58.17;101542.47;5050182;28;20413;-63
2021/09/17 04:42:23;;;;;;;6.15;3.33;;;;;;;20.71;58.05;101549.19;5050951;28;20321;-64
2021/09/17 04:44:49;;;;;;;6.15;3.80;;;;;;;20.72;58.12;101549.06;5050566;28;20021;-63
2021/09/17 04:47:14;;;;;;;5.15;3.50;;;;;;;20.71;58.06;101552.69;5050424;28;20033;-62
2021/09/17 04:49:40;;;;;;;6.35;3.97;;;;;;;20.71;58.07;101555.34;5050721;28;20041;-62
2021/09/17 04:52:05;;;;;;;5.57;3.70;;;;;;;20.71;58.20;101552.69;5050771;28;20025;-63
2021/09/17 04:54:30;;;;;;;4.90;3.78;;;;;;;20.71;58.23;101562.44;5050372;28;20025;-64
2021/09/17 04:56:56;;;;;;;5.80;3.80;;;;;;;20.71;58.15;101557.13;5051294;28;20449;-62
2021/09/17 04:59:21;;;;;;;6.93;3.55;;;;;;;20.71;58.13;101560.66;5054211;28;20028;-63
2021/09/17 05:01:47;;;;;;;6.00;3.83;;;;;;;20.69;58.22;101551.97;5053761;28;20119;-63
2021/09/17 05:04:12;;;;;;;7.82;4.13;;;;;;;20.66;58.09;101549.56;5054500;28;20029;-63
2021/09/17 05:06:38;;;;;;;6.60;3.53;;;;;;;20.70;58.15;101556.28;5054371;28;20028;-63
2021/09/17 05:09:03;;;;;;;5.70;3.80;;;;;;;20.65;58.03;101548.72;5052962;28;20028;-63
2021/09/17 05:11:32;;;;;;;6.17;3.80;;;;;;;20.68;58.09;101554.72;5054239;28;20521;-63
2021/09/17 05:13:57;;;;;;;6.25;3.40;;;;;;;20.68;58.00;101557.38;5053952;28;20598;-63
2021/09/17 05:16:22;;;;;;;5.45;3.63;;;;;;;20.69;58.23;101553.78;5053313;28;20078;-63
2021/09/17 05:18:48;;;;;;;6.30;3.40;;;;;;;20.69;58.20;101553.78;5053759;28;20033;-62
2021/09/17 05:21:13;;;;;;;5.63;3.38;;;;;;;20.69;58.10;101559.06;5054037;28;20033;-63
2021/09/17 05:23:39;;;;;;;5.78;3.53;;;;;;;20.67;58.18;101559.19;5053152;28;20039;-64
2021/09/17 05:26:05;;;;;;;5.57;3.53;;;;;;;20.68;58.29;101552.94;5053615;28;20028;-63
2021/09/17 05:28:31;;;;;;;5.30;3.75;;;;;;;20.68;58.06;101558.25;5053837;28;20021;-62
2021/09/17 05:30:57;;;;;;;6.22;3.88;;;;;;;20.68;58.35;101554.72;5053148;28;20025;-63
2021/09/17 05:33:22;;;;;;;5.60;3.63;;;;;;;20.68;58.20;101558.25;5054035;28;20357;-63
2021/09/17 05:35:47;;;;;;;5.82;3.70;;;;;;;20.63;58.18;101545.34;5053598;28;20048;-63
2021/09/17 05:38:13;;;;;;;6.55;4.20;;;;;;;20.67;57.84;101561.00;5052925;28;20029;-64
2021/09/17 05:40:38;;;;;;;5.75;3.95;;;;;;;20.67;58.13;101548.59;5053830;28;20033;-63
2021/09/17 05:43:04;;;;;;;5.88;4.00;;;;;;;20.67;58.20;101558.38;5052861;28;20096;-62
2021/09/17 05:45:29;;;;;;;5.53;3.85;;;;;;;20.64;58.10;101559.44;5053568;28;20484;-63
2021/09/17 05:47:55;;;;;;;6.53;4.07;;;;;;;20.65;58.31;101559.31;5053157;28;20028;-64
2021/09/17 05:50:21;;;;;;;6.35;3.70;;;;;;;20.67;58.25;101561.00;5052792;28;20404;-63
2021/09/17 05:53:06;;;;;;;5.13;3.67;;;;;;;20.65;58.23;101553.19;5053552;28;20143;-63
2021/09/17 05:55:32;;;;;;;5.53;3.88;;;;;;;20.66;58.10;101557.50;5053274;28;20805;-62
2021/09/17 05:57:57;;;;;;;5.70;3.63;;;;;;;20.65;58.04;101554.03;5052260;28;20212;-63
2021/09/17 06:00:23;;;;;;;5.73;3.37;;;;;;;20.65;58.38;101554.03;5053719;28;20456;-62
2021/09/17 06:02:49;;;;;;;6.72;4.00;;;;;;;20.65;58.32;101547.91;5053185;28;20308;-63
2021/09/17 06:05:14;;;;;;;5.43;3.83;;;;;;;20.63;58.26;101547.13;5052758;28;20103;-62
2021/09/17 06:07:43;;;;;;;5.17;3.47;;;;;;;20.64;57.96;101546.19;5053350;28;20107;-62
2021/09/17 06:10:10;;;;;;;5.60;3.88;;;;;;;20.63;58.32;101540.03;5052766;28;20365;-63
2021/09/17 06:12:35;;;;;;;5.32;3.97;;;;;;;20.63;58.26;101541.81;5052555;28;20028;-64
2021/09/17 06:15:01;;;;;;;6.35;3.92;;;;;;;20.62;58.39;101534.88;5053034;28;20457;-63
2021/09/17 06:17:35;;;;;;;6.35;3.80;;;;;;;20.62;57.94;101535.69;5053144;28;20036;-63
2021/09/17 06:20:03;;;;;;;5.40;3.90;;;;;;;20.63;58.28;101540.03;5051893;28;20495;-63
2021/09/17 06:22:28;;;;;;;5.43;3.58;;;;;;;20.62;58.41;101551.59;5053495;28;20089;-63
2021/09/17 06:24:54;;;;;;;6.28;3.75;;;;;;;20.61;58.52;101546.41;5052465;28;20099;-63
2021/09/17 06:27:19;;;;;;;5.85;3.35;;;;;;;20.61;58.55;101549.06;5052161;28;20036;-64
2021/09/17 06:29:44;;;;;;;5.25;3.30;;;;;;;20.61;58.57;101554.34;5052946;28;20029;-62
2021/09/17 06:32:09;;;;;;;5.10;3.20;;;;;;;20.61;58.55;101554.34;5052542;28;20413;-63
2021/09/17 06:34:35;;;;;;;6.87;3.30;;;;;;;20.60;58.73;101557.97;5052018;28;20270;-61
2021/09/17 06:37:00;;;;;;;7.00;4.10;;;;;;;20.61;58.75;101560.50;5052274;28;20278;-62
2021/09/17 06:39:28;;;;;;;7.53;3.60;;;;;;;20.62;58.82;101554.22;5051743;28;20024;-64
2021/09/17 06:41:53;;;;;;;6.60;3.65;;;;;;;20.62;58.91;101553.41;5052164;28;20048;-62
2021/09/17 06:44:19;;;;;;;5.18;3.53;;;;;;;20.63;59.14;101566.53;5052692;28;20441;-63
2021/09/17 06:46:44;;;;;;;5.50;3.47;;;;;;;20.64;59.29;101562.91;5051659;28;20410;-62
2021/09/17 06:49:10;;;;;;;6.93;3.40;;;;;;;20.68;59.29;101567.97;5051941;28;20393;-64
2021/09/17 06:51:35;;;;;;;5.38;3.40;;;;;;;20.68;59.37;101575.91;5052654;28;20068;-63
2021/09/17 06:54:00;;;;;;;6.55;3.65;;;;;;;20.68;59.19;101571.47;5051740;28;20024;-63
2021/09/17 06:56:26;;;;;;;6.47;3.40;;;;;;;20.68;59.32;101563.53;5052368;28;20049;-63
2021/09/17 06:58:51;;;;;;;5.80;3.05;;;;;;;20.70;59.25;101563.41;5052329;28;20317;-62
2021/09/17 07:01:17;;;;;;;6.82;3.92;;;;;;;20.70;59.41;101568.72;5051872;28;20342;-62
2021/09/17 07:03:43;;;;;;;5.03;3.33;;;;;;;20.71;59.24;101567.72;5052619;28;20021;-63
2021/09/17 07:06:08;;;;;;;9.75;3.83;;;;;;;20.70;59.30;101564.25;5052254;28;20043;-64
2021/09/17 07:08:36;;;;;;;4.97;3.20;;;;;;;20.71;59.36;101568.59;5051528;28;20523;-63
2021/09/17 07:11:02;;;;;;;8.43;3.42;;;;;;;20.72;59.57;101570.25;5052074;28;20288;-63
2021/09/17 07:13:27;;;;;;;6.15;3.80;;;;;;;20.73;59.58;101563.13;5052416;28;20036;-61
2021/09/17 07:15:52;;;;;;;6.85;3.53;;;;;;;20.74;59.67;101562.19;5051012;28;20383;-63
2021/09/17 07:18:20;;;;;;;6.25;3.38;;;;;;;20.74;59.64;101563.00;5051996;28;20056;-61
2021/09/17 07:20:47;;;;;;;5.40;3.38;;;;;;;20.74;59.79;101557.72;5051985;28;20029;-63
2021/09/17 07:23:15;;;;;;;5.68;3.63;;;;;;;20.76;59.83;101560.25;5051404;28;20032;-63
2021/09/17 07:25:41;;;;;;;5.65;3.50;;;;;;;20.72;59.69;101545.59;5052135;28;20033;-62
2021/09/17 07:28:06;;;;;;;7.43;3.63;;;;;;;20.78;59.73;101563.63;5051535;28;20291;-63
2021/09/17 07:30:34;;;;;;;6.88;3.65;;;;;;;20.78;59.94;101561.81;5051443;28;20021;-60
2021/09/17 07:33:00;;;;;;;5.97;4.03;;;;;;;20.81;59.93;101558.09;5051585;28;20029;-63
2021/09/17 07:35:26;;;;;;;8.88;4.10;;;;;;;20.78;59.75;101551.22;5051935;28;20048;-65
2021/09/17 07:37:51;;;;;;;7.65;3.88;;;;;;;20.85;59.62;101562.16;5050605;28;20071;-67
2021/09/17 07:40:18;;;;;;;6.55;3.72;;;;;;;20.86;59.88;101566.50;5052086;28;20021;-66
2021/09/17 07:42:45;;;;;;;7.47;3.90;;;;;;;20.86;60.04;101565.66;5049982;28;20029;-64
2021/09/17 07:45:14;;;;;;;9.20;3.72;;;;;;;20.89;59.87;101571.53;5051914;28;20017;-63
2021/09/17 07:47:39;;;;;;;5.82;3.55;;;;;;;20.90;59.86;101567.06;5052072;28;20108;-63
2021/09/17 07:50:08;;;;;;;6.00;3.47;;;;;;;20.91;59.69;101566.94;5050570;28;20516;-62
2021/09/17 07:52:44;;;;;;;7.63;4.00;;;;;;;20.92;59.48;101571.28;5051583;28;20041;-63
2021/09/17 07:55:10;;;;;;;5.95;3.63;;;;;;;20.93;59.58;101572.13;5051895;28;20036;-62
2021/09/17 07:57:36;;;;;;;6.22;3.63;;;;;;;20.92;59.58;101566.00;5050708;28;20025;-59
2021/09/17 08:00:04;;;;;;;6.13;3.90;;;;;;;20.92;59.48;101560.69;5051118;28;20033;-58
2021/09/17 08:02:29;;;;;;;6.95;4.30;;;;;;;20.91;59.64;101564.28;5051540;28;20029;-61
2021/09/17 08:04:54;;;;;;;6.50;3.67;;;;;;;20.93;59.54;101565.00;5050754;28;20032;-62
2021/09/17 08:07:22;;;;;;;6.13;3.57;;;;;;;20.94;59.55;101568.50;5052141;28;20305;-62
2021/09/17 08:09:47;;;;;;;8.25;3.75;;;;;;;20.94;59.73;101572.00;5051680;28;20281;-62
2021/09/17 08:12:22;;;;;;;7.07;3.87;;;;;;;20.94;59.59;101574.66;5051214;28;20021;-61
2021/09/17 08:14:47;;;;;;;6.72;3.95;;;;;;;20.94;59.51;101569.34;5051810;28;20357;-64
2021/09/17 08:17:12;;;;;;;5.93;3.85;;;;;;;20.95;59.61;101568.38;5051666;28;20124;-62
2021/09/17 08:19:38;;;;;;;6.07;3.83;;;;;;;20.97;59.60;101576.22;5051084;28;20021;-67
2021/09/17 08:22:06;;;;;;;6.25;3.70;;;;;;;20.96;59.67;101566.56;5051434;28;20288;-59
2021/09/17 08:24:55;;;;;;;7.13;3.83;;;;;;;20.95;59.90;101571.03;5051620;28;20020;-59
2021/09/17 08:27:20;;;;;;;10.43;4.05;;;;;;;20.97;59.67;101570.91;5050951;28;20037;-63
2021/09/17 08:29:45;;;;;;;8.35;4.20;;;;;;;20.99;59.77;101572.44;5051433;28;20100;-63
2021/09/17 08:32:10;;;;;;;7.33;4.17;;;;;;;20.98;59.83;101565.50;5052753;28;20349;-64
2021/09/17 08:34:36;;;;;;;11.27;4.13;;;;;;;20.98;59.67;101567.28;5059787;28;20286;-61
2021/09/17 08:37:03;;;;;;;10.45;4.00;;;;;;;20.98;59.66;101567.28;5058304;28;20047;-62
2021/09/17 08:39:29;;;;;;;10.98;4.18;;;;;;;20.97;59.70;101566.44;5064744;28;20028;-64
2021/09/17 08:41:55;;;;;;;11.25;4.13;;;;;;;20.99;59.72;101563.66;5066103;28;20032;-65
2021/09/17 08:44:20;;;;;;;9.40;4.40;;;;;;;20.97;59.55;101563.78;5067332;28;20024;-65
2021/09/17 08:46:46;;;;;;;10.47;4.40;;;;;;;20.99;59.50;101566.31;5065675;28;20326;-64
2021/09/17 08:49:11;;;;;;;8.73;4.75;;;;;;;21.00;59.58;101568.84;5056775;28;20400;-64
2021/09/17 08:51:37;;;;;;;10.65;4.43;;;;;;;20.98;59.75;101562.84;5056525;28;20052;-62
2021/09/17 08:54:04;;;;;;;9.27;4.68;;;;;;;21.02;59.46;101568.72;5055919;28;20025;-64
2021/09/17 08:56:31;;;;;;;8.60;4.22;;;;;;;21.00;59.58;101560.06;5056701;28;20033;-62
2021/09/17 08:58:56;;;;;;;12.15;5.22;;;;;;;21.04;59.67;101558.81;5056054;28;20472;-64
2021/09/17 09:01:29;;;;;;;9.77;4.60;;;;;;;21.06;59.60;101556.91;5055121;28;20037;-64
2021/09/17 09:03:59;;;;;;;10.25;4.03;;;;;;;21.06;59.66;101559.56;5056113;28;20285;-63
2021/09/17 09:06:25;;;;;;;13.13;4.72;;;;;;;21.08;59.79;101562.91;5056141;28;20028;-64
2021/09/17 09:08:50;;;;;;;10.80;5.00;;;;;;;21.10;59.88;101558.31;5054884;28;20040;-67
2021/09/17 09:11:21;;;;;;;10.18;4.60;;;;;;;21.11;59.65;101562.66;5055222;28;20380;-67
2021/09/17 09:13:59;;;;;;;12.05;4.70;;;;;;;21.11;59.97;101567.97;5055553;28;20033;-67
2021/09/17 09:16:24;;;;;;;9.15;4.50;;;;;;;21.13;59.59;101560.72;5055369;28;20029;-65
2021/09/17 09:18:50;;;;;;;9.85;4.65;;;;;;;21.12;59.73;101551.06;5054607;28;20029;-67
2021/09/17 09:21:30;;;;;;;9.70;4.97;;;;;;;21.14;60.01;101557.13;5054450;28;20426;-68
2021/09/17 09:24:17;;;;;;;9.40;4.40;;;;;;;21.16;60.04;101549.88;5055294;28;20100;-69
2021/09/17 09:26:46;;;;;;;9.10;4.22;;;;;;;21.17;59.75;101548.91;5055604;28;20021;-68
2021/09/17 09:29:28;;;;;;;8.98;4.25;;;;;;;21.20;59.91;101546.00;5053779;28;20033;-68
2021/09/17 09:31:55;;;;;;;7.50;4.00;;;;;;;21.19;59.93;101546.97;5054359;28;20021;-69
2021/09/17 09:34:23;;;;;;;8.02;4.10;;;;;;;21.19;60.03;101540.84;5054407;28;20039;-68
2021/09/17 09:36:49;;;;;;;8.43;4.97;;;;;;;21.20;60.04;101548.66;5053652;28;20040;-64
2021/09/17 09:39:14;;;;;;;8.73;4.55;;;;;;;21.20;60.02;101545.16;5056305;28;20029;-65
2021/09/17 09:41:40;;;;;;;7.60;4.25;;;;;;;21.23;60.04;101544.06;5054518;28;20098;-65
2021/09/17 09:44:16;;;;;;;6.78;3.67;;;;;;;21.21;59.94;101541.53;5053460;28;20113;-66
2021/09/17 09:46:44;;;;;;;8.55;3.80;;;;;;;21.24;59.84;101543.06;5054245;28;20017;-65
2021/09/17 09:49:26;;;;;;;10.18;4.97;;;;;;;21.26;60.12;101551.75;5053954;28;20049;-64
2021/09/17 09:52:07;;;;;;;8.52;4.30;;;;;;;21.26;59.90;101552.59;5053539;28;20029;-65
2021/09/17 09:54:36;;;;;;;7.85;4.53;;;;;;;21.25;59.87;101550.06;5054022;28;20133;-64
2021/09/17 09:57:05;;;;;;;8.65;3.90;;;;;;;21.26;60.24;101551.75;5052583;28;20036;-64
2021/09/17 09:59:33;;;;;;;7.95;4.40;;;;;;;21.26;60.05;101551.75;5054288;28;20515;-65
2021/09/17 10:02:01;;;;;;;8.55;3.92;;;;;;;21.28;60.19;101555.09;5053614;28;20021;-63
2021/09/17 10:04:33;;;;;;;6.95;4.25;;;;;;;21.29;60.10;101552.34;5053033;28;20029;-66
2021/09/17 10:07:08;;;;;;;9.30;4.72;;;;;;;21.30;60.21;101548.72;5053426;28;20025;-66
2021/09/17 10:09:36;;;;;;;8.32;4.38;;;;;;;21.30;60.08;101554.03;5053559;28;20071;-66
2021/09/17 10:12:07;;;;;;;11.57;4.40;;;;;;;21.32;60.40;101554.72;5052507;28;20017;-64
2021/09/17 10:14:33;;;;;;;8.43;4.50;;;;;;;21.33;60.23;101553.78;5053375;28;20032;-66
2021/09/17 10:17:02;;;;;;;8.85;4.85;;;;;;;21.32;60.12;101554.72;5053242;28;20032;-64
2021/09/17 10:19:28;;;;;;;7.35;4.25;;;;;;;21.32;60.36;101557.38;5052820;28;20104;-66
2021/09/17 10:22:04;;;;;;;7.53;4.22;;;;;;;21.31;60.56;101550.38;5053661;28;20515;-66
2021/09/17 10:24:30;;;;;;;8.25;4.15;;;;;;;21.35;60.25;101553.63;5052403;28;20031;-70
2021/09/17 10:26:56;;;;;;;9.90;4.35;;;;;;;21.33;60.48;101548.47;5053103;28;20037;-64
2021/09/17 10:29:37;;;;;;;7.17;3.87;;;;;;;21.32;60.38;101549.44;5053355;28;20021;-64
2021/09/17 10:32:27;;;;;;;6.95;3.75;;;;;;;21.32;60.34;101556.53;5052381;28;20036;-63
2021/09/17 10:35:09;;;;;;;7.40;4.03;;;;;;;21.34;60.31;101558.09;5051666;28;20131;-64
2021/09/17 10:38:17;;;;;;;7.05;4.10;;;;;;;21.35;60.52;101558.94;5053390;28;20025;-66
2021/09/17 10:40:46;;;;;;;7.93;3.40;;;;;;;21.37;60.41;101557.00;5049875;28;20029;-65
2021/09/17 10:43:14;;;;;;;7.40;4.13;;;;;;;21.38;60.47;101556.03;5052208;28;20037;-64
2021/09/17 10:45:44;;;;;;;6.43;3.70;;;;;;;21.36;60.56;101558.81;5052050;28;20044;-65
2021/09/17 10:48:11;;;;;;;6.88;3.88;;;;;;;21.37;60.30;101557.81;5052662;28;20037;-64
2021/09/17 10:51:00;;;;;;;7.20;3.95;;;;;;;21.35;60.31;101553.63;5052575;28;20037;-66
2021/09/17 10:53:41;;;;;;;7.30;3.45;;;;;;;21.33;60.25;101555.56;5051996;28;20101;-64
2021/09/17 10:56:13;;;;;;;6.45;3.90;;;;;;;21.34;60.32;101549.31;5051900;28;20028;-65
2021/09/17 10:58:39;;;;;;;5.95;3.72;;;;;;;21.34;60.39;101558.09;5052952;28;20087;-65
2021/09/17 11:01:07;;;;;;;6.38;3.97;;;;;;;21.34;60.32;101552.78;5051612;28;20052;-66
2021/09/17 11:03:35;;;;;;;8.73;4.20;;;;;;;21.35;60.25;101548.34;5052684;28;20043;-64
2021/09/17 11:06:25;;;;;;;7.25;4.00;;;;;;;21.36;60.31;101545.56;5052090;28;20488;-65
2021/09/17 11:09:05;;;;;;;6.90;3.78;;;;;;;21.38;60.31;101548.09;5051457;28;20041;-63
2021/09/17 11:11:46;;;;;;;7.78;3.72;;;;;;;21.38;60.12;101551.56;5052664;28;20083;-65
2021/09/17 11:14:19;;;;;;;7.68;4.00;;;;;;;21.38;60.02;101543.59;5052065;28;20045;-64
2021/09/17 11:16:46;;;;;;;8.00;3.90;;;;;;;21.38;60.06;101546.25;5052374;28;20025;-65
2021/09/17 11:19:19;;;;;;;6.80;3.47;;;;;;;21.39;60.07;101541.78;5052409;28;20047;-64
2021/09/17 11:21:47;;;;;;;6.60;3.75;;;;;;;21.37;60.16;101533.97;5052417;28;20177;-64
2021/09/17 11:24:31;;;;;;;6.30;3.42;;;;;;;21.42;60.19;101532.75;5052675;28;20031;-65
2021/09/17 11:26:57;;;;;;;9.63;3.80;;;;;;;21.40;60.12;101526.75;5051992;28;20094;-63